createdAt,value
2023-07-14T00:02:29.122Z,17.76
2023-07-14T00:05:33.883Z,17.65
2023-07-14T00:08:35.306Z,17.85
2023-07-14T00:11:36.725Z,17.56
2023-07-14T00:14:38.166Z,17.53
2023-07-14T00:17:39.888Z,17.26
2023-07-14T00:20:41.454Z,17.36
2023-07-14T00:23:42.906Z,17.10
2023-07-14T00:26:48.312Z,17.05
2023-07-14T00:29:50.696Z,16.89
2023-07-14T00:32:55.380Z,16.83
2023-07-14T00:35:57.005Z,16.85
2023-07-14T00:38:58.434Z,16.83
2023-07-14T00:42:00.874Z,16.77
2023-07-14T00:45:02.312Z,16.90
2023-07-14T00:48:05.465Z,16.79
2023-07-14T00:51:14.924Z,16.57
2023-07-14T00:54:29.836Z,16.54
2023-07-14T00:57:32.212Z,16.72
2023-07-14T01:00:33.780Z,16.57
2023-07-14T01:03:40.785Z,16.45
2023-07-14T01:06:42.410Z,16.32
2023-07-14T01:09:46.234Z,16.37
2023-07-14T01:12:54.304Z,16.17
2023-07-14T01:15:56.267Z,16.34
2023-07-14T01:18:59.410Z,16.40
2023-07-14T01:22:25.573Z,16.45
2023-07-14T01:25:42.381Z,16.35
2023-07-14T01:28:44.033Z,16.18
2023-07-14T01:31:45.577Z,15.97
2023-07-14T01:34:47.249Z,15.88
2023-07-14T01:37:48.716Z,15.96
2023-07-14T01:40:50.582Z,16.06
2023-07-14T01:43:52.299Z,15.84
2023-07-14T01:46:55.512Z,15.97
2023-07-14T01:49:59.960Z,15.83
2023-07-14T01:53:07.630Z,15.77
2023-07-14T01:56:13.346Z,15.69
2023-07-14T01:59:23.472Z,15.78
2023-07-14T02:02:29.847Z,15.49
2023-07-14T02:05:35.386Z,15.50
2023-07-14T02:08:37.318Z,15.35
2023-07-14T02:11:38.763Z,15.22
2023-07-14T02:14:54.275Z,15.12
2023-07-14T02:17:56.913Z,14.97
2023-07-14T02:20:59.690Z,15.18
2023-07-14T02:24:01.898Z,15.14
2023-07-14T02:27:05.000Z,15.25
2023-07-14T02:30:19.328Z,15.06
2023-07-14T02:33:26.350Z,14.92
2023-07-14T02:36:44.397Z,14.91
2023-07-14T02:39:45.984Z,15.00
2023-07-14T02:42:47.432Z,14.82
2023-07-14T02:45:59.589Z,14.81
2023-07-14T02:49:01.156Z,14.85
2023-07-14T02:52:03.108Z,14.71
2023-07-14T02:55:04.879Z,14.65
2023-07-14T02:58:06.492Z,14.61
2023-07-14T03:01:08.008Z,14.64
2023-07-14T03:04:10.531Z,14.61
2023-07-14T03:07:12.195Z,14.75
2023-07-14T03:10:13.669Z,14.58
2023-07-14T03:13:17.416Z,14.84
2023-07-14T03:16:19.878Z,14.70
2023-07-14T03:19:21.391Z,14.64
2023-07-14T03:22:24.361Z,14.67
2023-07-14T03:25:26.483Z,14.66
2023-07-14T03:28:28.978Z,14.47
2023-07-14T03:31:30.432Z,14.60
2023-07-14T03:34:31.894Z,14.64
2023-07-14T03:37:33.325Z,14.57
2023-07-14T03:40:34.828Z,14.58
2023-07-14T03:43:36.604Z,14.52
2023-07-14T03:46:38.073Z,14.52
2023-07-14T03:49:39.718Z,14.64
2023-07-14T03:52:43.001Z,14.67
2023-07-14T03:55:48.191Z,14.57
2023-07-14T03:58:49.572Z,14.75
2023-07-14T04:01:51.074Z,14.80
2023-07-14T04:04:52.599Z,14.52
2023-07-14T04:07:54.063Z,14.46
2023-07-14T04:10:55.506Z,14.44
2023-07-14T04:13:57.886Z,14.36
2023-07-14T04:16:59.443Z,14.37
2023-07-14T04:20:00.968Z,14.34
2023-07-14T04:23:02.495Z,14.30
2023-07-14T04:26:04.085Z,14.29
2023-07-14T04:29:08.646Z,14.41
2023-07-14T04:32:10.247Z,14.27
2023-07-14T04:35:11.750Z,14.24
2023-07-14T04:38:13.188Z,14.32
2023-07-14T04:41:14.897Z,14.37
2023-07-14T04:44:17.108Z,14.48
2023-07-14T04:47:18.555Z,14.58
2023-07-14T04:50:20.010Z,14.68
2023-07-14T04:53:21.477Z,14.78
2023-07-14T04:56:22.922Z,14.84
2023-07-14T04:59:24.462Z,14.91
2023-07-14T05:02:26.000Z,14.97
2023-07-14T05:05:27.638Z,15.12
2023-07-14T05:08:29.087Z,15.14
2023-07-14T05:11:30.530Z,15.16
2023-07-14T05:14:31.954Z,15.26
2023-07-14T05:17:36.338Z,15.22
2023-07-14T05:20:37.871Z,15.21
2023-07-14T05:23:40.531Z,15.25
2023-07-14T05:26:42.135Z,15.37
2023-07-14T05:29:45.739Z,15.47
2023-07-14T05:32:48.100Z,15.54
2023-07-14T05:35:49.778Z,15.64
2023-07-14T05:38:51.989Z,15.83
2023-07-14T05:41:53.592Z,15.93
2023-07-14T05:44:55.324Z,16.14
2023-07-14T05:47:57.112Z,16.15
2023-07-14T05:50:59.487Z,16.36
2023-07-14T05:54:00.954Z,16.34
2023-07-14T05:57:02.527Z,16.32
2023-07-14T06:00:07.857Z,16.59
2023-07-14T06:03:14.944Z,16.56
2023-07-14T06:06:17.125Z,16.50
2023-07-14T06:09:18.694Z,16.94
2023-07-14T06:12:20.095Z,16.99
2023-07-14T06:15:21.810Z,17.11
2023-07-14T06:18:23.877Z,17.23
2023-07-14T06:21:25.401Z,17.35
2023-07-14T06:24:26.929Z,17.77
2023-07-14T06:27:32.697Z,17.80
2023-07-14T06:30:36.305Z,17.79
2023-07-14T06:33:37.816Z,18.05
2023-07-14T06:36:39.233Z,17.87
2023-07-14T06:39:40.666Z,18.25
2023-07-14T06:42:42.095Z,18.10
2023-07-14T06:45:48.577Z,18.59
2023-07-14T06:48:50.058Z,18.54
2023-07-14T06:51:51.592Z,18.48
2023-07-14T06:54:54.036Z,18.86
2023-07-14T06:57:55.516Z,18.70
2023-07-14T07:00:57.566Z,19.12
2023-07-14T07:03:59.514Z,18.82
2023-07-14T07:07:01.064Z,19.38
2023-07-14T07:10:03.163Z,18.84
2023-07-14T07:13:04.914Z,18.91
2023-07-14T07:16:06.755Z,19.06
2023-07-14T07:19:09.336Z,19.61
2023-07-14T07:22:11.142Z,19.87
2023-07-14T07:25:12.929Z,19.92
2023-07-14T07:28:14.386Z,19.60
2023-07-14T07:31:16.242Z,19.97
2023-07-14T07:34:20.257Z,19.73
2023-07-14T07:37:23.433Z,19.74
2023-07-14T07:40:27.025Z,20.19
2023-07-14T07:43:29.167Z,20.33
2023-07-14T07:46:31.569Z,20.52
2023-07-14T07:49:33.012Z,20.69
2023-07-14T07:52:34.607Z,20.87
2023-07-14T07:55:36.086Z,20.98
2023-07-14T07:58:37.720Z,21.12
2023-07-14T08:01:39.192Z,21.48
2023-07-14T08:04:40.705Z,21.22
2023-07-14T08:07:42.481Z,21.35
2023-07-14T08:10:46.901Z,21.23
2023-07-14T08:13:48.399Z,21.55
2023-07-14T08:16:49.875Z,21.27
2023-07-14T08:19:51.766Z,21.57
2023-07-14T08:22:53.240Z,21.75
2023-07-14T08:25:57.768Z,21.60
2023-07-14T08:28:59.632Z,21.67
2023-07-14T08:32:01.220Z,21.74
2023-07-14T08:35:03.887Z,21.80
2023-07-14T08:38:05.884Z,22.35
2023-07-14T08:41:10.676Z,22.27
2023-07-14T08:44:46.317Z,22.37
2023-07-14T08:47:56.043Z,22.42
2023-07-14T08:51:04.120Z,22.41
2023-07-14T08:54:21.349Z,22.38
2023-07-14T08:57:25.861Z,22.80
2023-07-14T09:00:41.401Z,22.77
2023-07-14T09:03:47.049Z,23.02
2023-07-14T09:06:48.699Z,22.99
2023-07-14T09:09:50.235Z,23.29
2023-07-14T09:13:04.200Z,23.24
2023-07-14T09:16:08.440Z,23.20
2023-07-14T09:19:32.332Z,22.57
2023-07-14T09:22:59.338Z,22.76
2023-07-14T09:26:25.370Z,23.67
2023-07-14T09:29:38.253Z,23.80
2023-07-14T09:32:44.053Z,23.96
2023-07-14T09:35:46.334Z,23.41
2023-07-14T09:38:58.352Z,23.40
2023-07-14T09:42:04.561Z,23.88
2023-07-14T09:45:25.153Z,23.78
2023-07-14T09:48:34.181Z,23.81
2023-07-14T09:51:37.152Z,24.17
2023-07-14T09:54:57.177Z,24.64
2023-07-14T09:58:10.963Z,24.23
2023-07-14T10:01:15.697Z,24.55
2023-07-14T10:04:17.584Z,24.47
2023-07-14T10:07:42.740Z,24.25
2023-07-14T10:10:44.490Z,23.90
2023-07-14T10:14:08.202Z,24.60
2023-07-14T10:17:26.561Z,24.44
2023-07-14T10:20:29.065Z,24.48
2023-07-14T10:23:30.607Z,24.60
2023-07-14T10:26:39.976Z,25.21
2023-07-14T10:30:04.700Z,25.08
2023-07-14T10:33:16.356Z,24.65
2023-07-14T10:36:22.477Z,25.16
2023-07-14T10:39:40.232Z,24.66
2023-07-14T10:42:53.298Z,24.97
2023-07-14T10:45:59.736Z,25.09
2023-07-14T10:49:06.312Z,25.27
2023-07-14T10:52:19.117Z,25.01
2023-07-14T10:55:27.123Z,25.77
2023-07-14T10:58:56.062Z,25.70
2023-07-14T11:02:12.856Z,26.12
2023-07-14T11:05:20.851Z,26.29
2023-07-14T11:08:28.857Z,26.22
2023-07-14T11:11:53.027Z,26.15
2023-07-14T11:15:19.579Z,26.27
2023-07-14T11:18:46.491Z,26.37
2023-07-14T11:22:16.145Z,26.03
2023-07-14T11:25:30.478Z,25.92
2023-07-14T11:28:49.566Z,26.22
2023-07-14T11:31:54.785Z,26.44
2023-07-14T11:35:11.564Z,26.73
2023-07-14T11:38:26.169Z,26.90
2023-07-14T11:41:29.239Z,26.78
2023-07-14T11:44:30.873Z,26.01
2023-07-14T11:47:42.529Z,26.52
2023-07-14T11:50:46.028Z,26.94
2023-07-14T11:54:07.517Z,26.69
2023-07-14T11:57:17.485Z,26.51
2023-07-14T12:00:27.800Z,26.29
2023-07-14T12:03:36.211Z,26.36
2023-07-14T12:06:47.368Z,26.21
2023-07-14T12:10:14.005Z,26.11
2023-07-14T12:13:29.014Z,26.12
2023-07-14T12:16:47.734Z,26.25
2023-07-14T12:19:49.235Z,25.59
2023-07-14T12:23:13.771Z,26.22
2023-07-14T12:26:18.706Z,26.20
2023-07-14T12:29:22.543Z,26.29
2023-07-14T12:32:24.308Z,26.59
2023-07-14T12:35:28.304Z,27.01
2023-07-14T12:38:29.848Z,27.56
2023-07-14T12:41:35.215Z,27.39
2023-07-14T12:44:37.777Z,26.77
2023-07-14T12:47:45.021Z,27.48
2023-07-14T12:50:46.737Z,27.69
2023-07-14T12:54:01.963Z,28.25
2023-07-14T12:57:03.802Z,28.36
2023-07-14T13:00:24.568Z,28.90
2023-07-14T13:03:26.040Z,28.92
2023-07-14T13:06:27.557Z,28.35
2023-07-14T13:09:29.809Z,27.13
2023-07-14T13:12:32.422Z,28.21
2023-07-14T13:15:35.226Z,28.30
2023-07-14T13:18:37.566Z,28.94
2023-07-14T13:21:47.792Z,29.96
2023-07-14T13:25:00.361Z,29.00
2023-07-14T13:28:21.114Z,29.92
2023-07-14T13:31:29.224Z,29.69
2023-07-14T13:34:44.402Z,29.43
2023-07-14T13:37:58.135Z,29.87
2023-07-14T13:41:20.419Z,30.19
2023-07-14T13:44:27.985Z,30.31
2023-07-14T13:47:41.535Z,30.18
2023-07-14T13:50:43.075Z,29.77
2023-07-14T13:53:44.864Z,29.52
2023-07-14T13:56:47.790Z,29.35
2023-07-14T13:59:49.218Z,28.81
2023-07-14T14:02:57.224Z,28.90
2023-07-14T14:05:59.199Z,29.05
2023-07-14T14:09:00.726Z,28.97
2023-07-14T14:12:02.158Z,29.29
2023-07-14T14:15:03.813Z,28.79
2023-07-14T14:18:10.840Z,28.20
2023-07-14T14:21:14.427Z,28.29
2023-07-14T14:24:17.143Z,28.61
2023-07-14T14:27:18.623Z,28.41
2023-07-14T14:30:25.353Z,29.86
2023-07-14T14:33:29.453Z,30.36
2023-07-14T14:36:30.873Z,30.53
2023-07-14T14:39:32.387Z,30.64
2023-07-14T14:42:34.853Z,29.76
2023-07-14T14:45:36.395Z,29.77
2023-07-14T14:48:42.025Z,28.69
2023-07-14T14:51:43.981Z,28.90
2023-07-14T14:54:45.442Z,29.78
2023-07-14T14:57:51.662Z,29.33
2023-07-14T15:01:11.686Z,29.69
2023-07-14T15:04:18.381Z,29.44
2023-07-14T15:07:19.816Z,29.40
2023-07-14T15:10:25.632Z,29.75
2023-07-14T15:13:27.418Z,29.14
2023-07-14T15:16:29.699Z,28.67
2023-07-14T15:19:31.289Z,29.04
2023-07-14T15:22:32.794Z,29.47
2023-07-14T15:25:35.595Z,28.99
2023-07-14T15:28:37.124Z,28.72
2023-07-14T15:31:44.395Z,28.43
2023-07-14T15:34:45.954Z,28.47
2023-07-14T15:37:47.542Z,28.75
2023-07-14T15:40:51.173Z,28.86
2023-07-14T15:43:53.066Z,28.57
2023-07-14T15:46:54.720Z,28.25
2023-07-14T15:49:56.169Z,28.48
2023-07-14T15:52:58.058Z,28.01
2023-07-14T15:55:59.676Z,28.31
2023-07-14T15:59:01.725Z,28.37
2023-07-14T16:02:03.489Z,28.07
2023-07-14T16:05:05.224Z,28.35
2023-07-14T16:08:11.071Z,27.81
2023-07-14T16:11:28.558Z,28.33
2023-07-14T16:14:30.987Z,28.36
2023-07-14T16:17:32.632Z,28.20
2023-07-14T16:20:34.240Z,27.65
2023-07-14T16:23:35.959Z,27.92
2023-07-14T16:26:37.464Z,28.32
2023-07-14T16:29:38.916Z,28.16
2023-07-14T16:32:40.440Z,28.12
2023-07-14T16:35:44.853Z,28.15
2023-07-14T16:38:46.272Z,28.00
2023-07-14T16:41:48.358Z,28.13
2023-07-14T16:44:52.447Z,28.12
2023-07-14T16:47:55.751Z,27.63
2023-07-14T16:50:57.375Z,28.05
2023-07-14T16:54:00.151Z,27.71
2023-07-14T16:57:02.960Z,28.17
2023-07-14T17:00:27.706Z,27.81
2023-07-14T17:03:30.239Z,27.66
2023-07-14T17:06:46.211Z,27.70
2023-07-14T17:09:50.852Z,27.50
2023-07-14T17:12:54.065Z,27.91
2023-07-14T17:15:58.111Z,27.73
2023-07-14T17:18:59.625Z,27.73
2023-07-14T17:22:03.077Z,27.33
2023-07-14T17:25:14.576Z,27.77
2023-07-14T17:28:19.057Z,27.53
2023-07-14T17:31:20.506Z,27.30
2023-07-14T17:34:22.005Z,27.28
2023-07-14T17:37:25.168Z,27.24
2023-07-14T17:40:30.092Z,27.20
2023-07-14T17:43:32.815Z,27.24
2023-07-14T17:46:34.391Z,27.30
2023-07-14T17:49:36.358Z,27.11
2023-07-14T17:52:38.673Z,27.22
2023-07-14T17:55:40.099Z,27.06
2023-07-14T17:58:41.559Z,26.92
2023-07-14T18:01:44.470Z,26.84
2023-07-14T18:04:45.898Z,26.77
2023-07-14T18:07:48.732Z,26.75
2023-07-14T18:10:57.986Z,26.65
2023-07-14T18:13:59.397Z,26.47
2023-07-14T18:17:00.819Z,26.46
2023-07-14T18:20:02.324Z,26.46
2023-07-14T18:23:03.908Z,26.46
2023-07-14T18:26:06.372Z,26.44
2023-07-14T18:29:14.587Z,26.32
2023-07-14T18:32:16.345Z,26.43
2023-07-14T18:35:20.799Z,26.41
2023-07-14T18:38:27.366Z,26.37
2023-07-14T18:41:28.927Z,26.34
2023-07-14T18:44:30.409Z,26.26
2023-07-14T18:47:34.771Z,26.17
2023-07-14T18:50:37.181Z,26.15
2023-07-14T18:53:38.579Z,26.01
2023-07-14T18:56:40.327Z,25.91
2023-07-14T18:59:41.751Z,25.92
2023-07-14T19:02:43.900Z,25.85
2023-07-14T19:05:46.275Z,25.86
2023-07-14T19:08:49.213Z,25.80
2023-07-14T19:11:58.629Z,25.59
2023-07-14T19:15:00.066Z,25.52
2023-07-14T19:18:02.678Z,25.52
2023-07-14T19:21:17.570Z,25.47
2023-07-14T19:24:19.363Z,25.34
2023-07-14T19:27:20.798Z,25.35
2023-07-14T19:30:22.920Z,25.29
2023-07-14T19:33:30.151Z,25.09
2023-07-14T19:36:31.622Z,25.01
2023-07-14T19:39:33.129Z,24.98
2023-07-14T19:42:34.740Z,24.93
2023-07-14T19:45:36.187Z,24.86
2023-07-14T19:48:38.643Z,24.73
2023-07-14T19:51:41.375Z,24.62
2023-07-14T19:54:42.933Z,24.46
2023-07-14T19:57:44.501Z,24.28
2023-07-14T20:00:47.144Z,24.11
2023-07-14T20:03:49.565Z,24.00
2023-07-14T20:06:51.342Z,24.01
2023-07-14T20:09:52.787Z,23.83
2023-07-14T20:12:54.339Z,23.94
2023-07-14T20:15:58.284Z,23.78
2023-07-14T20:18:59.712Z,23.65
2023-07-14T20:22:01.166Z,23.54
2023-07-14T20:25:06.515Z,23.39
2023-07-14T20:28:16.369Z,23.33
2023-07-14T20:31:22.676Z,23.17
2023-07-14T20:34:24.190Z,22.87
2023-07-14T20:37:25.720Z,22.78
2023-07-14T20:40:27.239Z,22.68
2023-07-14T20:43:31.506Z,22.66
2023-07-14T20:46:38.811Z,22.59
2023-07-14T20:49:40.232Z,22.71
2023-07-14T20:52:44.216Z,22.48
2023-07-14T20:55:48.895Z,22.62
2023-07-14T20:58:50.843Z,22.47
2023-07-14T21:01:52.528Z,22.61
2023-07-14T21:04:54.645Z,22.57
2023-07-14T21:07:57.170Z,22.66
2023-07-14T21:11:02.928Z,22.58
2023-07-14T21:14:04.353Z,22.22
2023-07-14T21:17:16.399Z,22.10
2023-07-14T21:20:18.040Z,22.18
2023-07-14T21:23:29.561Z,21.81
2023-07-14T21:26:34.295Z,21.70
2023-07-14T21:29:35.728Z,21.55
2023-07-14T21:32:38.281Z,21.89
2023-07-14T21:35:39.976Z,21.97
2023-07-14T21:38:41.469Z,21.94
2023-07-14T21:41:44.032Z,21.69
2023-07-14T21:44:46.097Z,21.59
2023-07-14T21:47:48.495Z,21.53
2023-07-14T21:50:52.840Z,21.45
2023-07-14T21:53:55.523Z,21.57
2023-07-14T21:56:57.064Z,21.46
2023-07-14T21:59:58.504Z,21.19
2023-07-14T22:03:00.000Z,21.03
2023-07-14T22:06:01.620Z,20.94
2023-07-14T22:09:03.057Z,20.82
2023-07-14T22:12:12.297Z,20.88
2023-07-14T22:15:19.109Z,20.76
2023-07-14T22:18:35.880Z,20.80
2023-07-14T22:21:48.494Z,20.79
2023-07-14T22:24:50.931Z,20.90
2023-07-14T22:27:52.495Z,20.90
2023-07-14T22:30:55.700Z,20.91
2023-07-14T22:34:03.197Z,20.83
2023-07-14T22:37:05.086Z,20.85
2023-07-14T22:40:09.977Z,20.63
2023-07-14T22:43:29.688Z,20.67
2023-07-14T22:46:32.753Z,20.64
2023-07-14T22:49:34.289Z,20.48
2023-07-14T22:52:35.901Z,20.42
2023-07-14T22:55:37.942Z,20.45
2023-07-14T22:58:39.442Z,20.38
2023-07-14T23:01:41.120Z,20.25
2023-07-14T23:04:43.159Z,20.31
2023-07-14T23:07:45.476Z,20.27
2023-07-14T23:10:51.536Z,20.14
2023-07-14T23:13:53.088Z,20.36
2023-07-14T23:16:55.198Z,20.29
2023-07-14T23:19:56.786Z,20.20
2023-07-14T23:22:58.353Z,19.86
2023-07-14T23:26:01.000Z,19.73
2023-07-14T23:29:02.964Z,19.76
2023-07-14T23:32:04.898Z,20.04
2023-07-14T23:35:15.330Z,19.97
2023-07-14T23:38:18.247Z,20.01
2023-07-14T23:41:25.414Z,19.96
2023-07-14T23:44:27.965Z,19.89
2023-07-14T23:47:29.481Z,19.99
2023-07-14T23:50:32.502Z,19.95
2023-07-14T23:53:35.452Z,19.71
2023-07-14T23:56:38.020Z,19.75
2023-07-14T23:59:39.923Z,19.54
